Time;durP1;ratioP1;P1;durP2;ratioP2;P2;SDS_P1;SDS_P2;PMS_P1;PMS_P2;Temp;Humidity;BMP_temperature;BMP_pressure;BME280_temperature;BME280_humidity;BME280_pressure;Samples;Min_cycle;Max_cycle;Signal;HPM_P1;HPM_P2
2023/10/28 00:00:45;;;;;;;7.45;3.85;;;;;;;8.99;91.52;96914.00;5084313;28;20039;-80
2023/10/28 00:03:11;;;;;;;11.00;4.57;;;;;;;8.89;91.95;96921.28;5064797;28;20073;-80
2023/10/28 00:05:36;;;;;;;9.55;3.65;;;;;;;9.04;91.95;96927.22;5079880;28;20060;-80
2023/10/28 00:08:03;;;;;;;5.53;3.80;;;;;;;9.02;91.27;96916.06;5073303;28;20036;-80
2023/10/28 00:10:30;;;;;;;8.65;3.30;;;;;;;9.12;91.23;96920.47;5078875;28;20085;-80
2023/10/28 00:12:55;;;;;;;4.68;3.75;;;;;;;8.94;90.85;96919.38;5084964;28;20028;-80
2023/10/28 00:15:20;;;;;;;7.68;3.75;;;;;;;9.13;91.52;96922.03;5078378;28;20741;-79
2023/10/28 00:17:50;;;;;;;6.03;3.63;;;;;;;9.14;90.82;96922.84;5069969;28;20036;-80
2023/10/28 00:20:19;;;;;;;9.00;4.10;;;;;;;9.12;91.45;96930.31;5067878;28;20037;-80
2023/10/28 00:22:49;;;;;;;10.88;3.70;;;;;;;9.07;90.64;96926.66;5070414;28;20040;-80
2023/10/28 00:25:16;;;;;;;10.20;3.65;;;;;;;9.13;90.79;96927.38;5077727;28;20023;-80
2023/10/28 00:27:44;;;;;;;8.55;4.63;;;;;;;9.10;90.96;96916.50;5078574;28;20240;-80
2023/10/28 00:30:11;;;;;;;5.32;3.50;;;;;;;9.06;90.36;96919.72;5064576;28;20031;-80
2023/10/28 00:32:37;;;;;;;6.03;3.60;;;;;;;9.13;91.04;96931.91;5068167;28;20122;-80
2023/10/28 00:35:11;;;;;;;7.05;3.40;;;;;;;9.05;91.02;96931.47;5075666;28;20091;-80
2023/10/28 00:37:37;;;;;;;15.02;4.00;;;;;;;9.09;90.76;96922.94;5079736;28;20032;-80
2023/10/28 00:40:05;;;;;;;5.45;3.30;;;;;;;9.06;91.00;96911.75;5076341;28;20028;-79
2023/10/28 00:42:35;;;;;;;8.38;3.53;;;;;;;9.06;91.05;96925.06;5069237;28;20106;-80
2023/10/28 00:45:06;;;;;;;3.45;3.00;;;;;;;9.06;90.33;96917.06;5085013;28;20027;-80
2023/10/28 00:47:35;;;;;;;4.70;2.97;;;;;;;9.02;91.22;96932.03;5080643;28;20399;-80
2023/10/28 00:50:05;;;;;;;5.82;3.40;;;;;;;8.91;91.26;96925.25;5066679;28;20059;-80
2023/10/28 00:52:31;;;;;;;6.18;3.70;;;;;;;9.02;90.79;96926.72;5077956;28;20115;-80
2023/10/28 00:54:57;;;;;;;8.25;3.67;;;;;;;9.01;90.84;96913.69;5097573;28;20143;-80
2023/10/28 00:57:24;;;;;;;9.15;4.43;;;;;;;9.04;91.10;96937.84;5076416;28;20375;-80
2023/10/28 00:59:49;;;;;;;9.88;3.75;;;;;;;8.94;91.38;96931.88;5075963;28;20036;-80
2023/10/28 01:02:15;;;;;;;7.65;3.70;;;;;;;8.92;91.58;96918.06;5087957;28;20387;-80
2023/10/28 01:04:40;;;;;;;8.82;4.32;;;;;;;8.84;91.36;96924.03;5082031;28;20106;-80
2023/10/28 01:07:07;;;;;;;6.78;4.05;;;;;;;8.90;91.66;96938.84;5068106;28;20024;-80
2023/10/28 01:09:44;;;;;;;6.75;3.42;;;;;;;9.00;91.41;96939.50;5062462;28;20060;-80
2023/10/28 01:12:09;;;;;;;5.28;3.38;;;;;;;9.04;91.63;96929.88;5075293;28;20506;-80
2023/10/28 01:14:34;;;;;;;12.02;3.72;;;;;;;9.01;91.69;96929.66;5081218;28;20020;-80
2023/10/28 01:17:04;;;;;;;8.55;3.65;;;;;;;9.03;91.07;96927.50;5078877;28;20056;-80
2023/10/28 01:19:29;;;;;;;8.68;4.00;;;;;;;8.96;91.69;96919.06;5082398;28;20067;-80
2023/10/28 01:21:55;;;;;;;12.35;4.68;;;;;;;8.91;91.28;96919.94;5079077;28;20420;-80
2023/10/28 01:24:20;;;;;;;8.80;3.97;;;;;;;9.00;91.38;96930.72;5073514;28;20563;-80
2023/10/28 01:26:45;;;;;;;7.38;3.97;;;;;;;8.93;91.25;96917.78;5092624;28;20499;-80
2023/10/28 01:29:12;;;;;;;8.13;3.75;;;;;;;8.96;91.56;96911.88;5075047;28;20060;-80
2023/10/28 01:31:37;;;;;;;9.98;4.28;;;;;;;8.89;91.52;96914.09;5061822;28;20031;-80
2023/10/28 01:34:03;;;;;;;8.70;3.50;;;;;;;8.88;91.61;96903.75;5063279;28;20032;-80
2023/10/28 01:36:29;;;;;;;9.65;3.45;;;;;;;8.92;91.66;96908.22;5078362;28;20038;-80
2023/10/28 01:38:54;;;;;;;10.73;4.00;;;;;;;8.92;91.89;96907.41;5084468;28;20028;-80
2023/10/28 01:41:20;;;;;;;7.50;3.22;;;;;;;9.02;91.15;96912.63;5056675;28;20114;-79
2023/10/28 01:43:46;;;;;;;11.13;3.75;;;;;;;9.04;91.16;96908.59;5088849;28;20402;-80
2023/10/28 01:46:11;;;;;;;9.25;3.33;;;;;;;8.96;91.33;96903.09;5072377;28;20424;-80
2023/10/28 01:48:37;;;;;;;8.90;3.60;;;;;;;8.99;91.95;96905.22;5068022;28;20059;-80
2023/10/28 01:51:02;;;;;;;14.40;4.57;;;;;;;8.92;91.90;96908.22;5073044;28;20093;-80
2023/10/28 01:53:27;;;;;;;7.05;3.17;;;;;;;8.98;91.65;96903.63;5087282;28;20028;-79
2023/10/28 01:55:53;;;;;;;7.70;3.40;;;;;;;8.99;91.16;96906.00;5086975;28;20067;-80
2023/10/28 01:58:19;;;;;;;8.88;3.00;;;;;;;9.04;91.82;96905.16;5085798;28;20028;-80
2023/10/28 02:00:44;;;;;;;9.02;3.85;;;;;;;9.00;91.90;96915.56;5080755;28;20119;-80
2023/10/28 02:03:11;;;;;;;9.20;3.53;;;;;;;8.93;92.07;96907.13;5085991;28;20115;-79
2023/10/28 02:05:38;;;;;;;4.38;3.58;;;;;;;9.03;91.37;96909.69;5074333;28;20035;-80
2023/10/28 02:08:03;;;;;;;10.80;3.78;;;;;;;9.01;91.48;96908.38;5087703;28;20081;-80
2023/10/28 02:10:29;;;;;;;5.60;3.42;;;;;;;8.88;91.69;96903.75;5084902;28;20111;-80
2023/10/28 02:12:54;;;;;;;11.52;3.20;;;;;;;8.93;91.67;96904.47;5081156;28;20090;-80
2023/10/28 02:15:20;;;;;;;9.35;3.83;;;;;;;9.01;91.72;96917.16;5084826;28;20028;-80
2023/10/28 02:17:46;;;;;;;6.82;3.05;;;;;;;8.85;92.21;96913.09;5085373;28;20035;-80
2023/10/28 02:20:13;;;;;;;14.40;4.68;;;;;;;8.71;92.71;96920.19;5079487;28;20047;-80
2023/10/28 02:22:39;;;;;;;10.10;3.55;;;;;;;8.77;92.55;96907.59;5081684;28;20594;-80
2023/10/28 02:25:06;;;;;;;6.20;3.72;;;;;;;8.83;92.49;96907.25;5071942;28;20040;-80
2023/10/28 02:27:33;;;;;;;12.20;3.20;;;;;;;8.97;92.19;96908.16;5084939;28;20040;-80
2023/10/28 02:29:58;;;;;;;4.93;3.25;;;;;;;8.87;92.65;96913.59;5082042;28;20499;-80
2023/10/28 02:32:24;;;;;;;7.85;3.22;;;;;;;8.80;93.09;96913.13;5080418;28;20036;-80
2023/10/28 02:34:49;;;;;;;17.58;4.35;;;;;;;8.61;92.08;96914.97;5086412;28;20036;-80
2023/10/28 02:37:14;;;;;;;9.52;4.15;;;;;;;8.55;93.04;96909.97;5084491;28;20043;-80
2023/10/28 02:39:40;;;;;;;8.77;4.28;;;;;;;8.42;94.08;96916.75;5068973;28;20524;-80
2023/10/28 02:42:05;;;;;;;10.95;5.45;;;;;;;8.24;95.30;96925.41;5082677;28;20063;-80
2023/10/28 02:44:30;;;;;;;8.05;4.13;;;;;;;8.53;94.32;96922.75;5080067;28;20492;-80
2023/10/28 02:46:56;;;;;;;6.88;4.05;;;;;;;8.54;94.05;96927.78;5089343;28;20028;-80
2023/10/28 02:49:21;;;;;;;6.47;3.50;;;;;;;8.61;93.94;96912.31;5086318;28;20108;-80
2023/10/28 02:51:47;;;;;;;13.18;5.53;;;;;;;8.19;94.45;96923.59;5083702;28;20571;-80
2023/10/28 02:54:14;;;;;;;14.02;5.40;;;;;;;8.05;95.97;96922.66;5087676;28;20554;-80
2023/10/28 02:56:39;;;;;;;8.93;3.50;;;;;;;8.35;95.22;96926.13;5073840;28;20109;-80
2023/10/28 02:59:06;;;;;;;5.53;3.78;;;;;;;8.71;94.18;96943.31;5086297;28;20056;-80
2023/10/28 03:01:31;;;;;;;7.28;4.43;;;;;;;8.15;95.14;96927.09;5078664;28;21281;-81
2023/10/28 03:03:57;;;;;;;12.98;5.30;;;;;;;8.22;95.68;96932.88;5073614;28;20154;-80
2023/10/28 03:06:22;;;;;;;9.65;4.88;;;;;;;8.26;94.97;96932.06;5054906;28;20131;-80
2023/10/28 03:08:47;;;;;;;10.27;5.35;;;;;;;8.43;94.45;96930.84;5082414;28;20056;-80
2023/10/28 03:11:13;;;;;;;7.22;3.90;;;;;;;8.52;95.01;96931.84;5080637;28;20105;-80
2023/10/28 03:13:38;;;;;;;7.93;4.15;;;;;;;8.30;95.53;96935.75;5088440;28;20020;-80
2023/10/28 03:16:04;;;;;;;15.88;4.95;;;;;;;8.49;94.13;96927.06;5069742;28;20031;-80
2023/10/28 03:18:29;;;;;;;9.13;4.30;;;;;;;8.60;94.47;96924.03;5085070;28;20032;-80
2023/10/28 03:20:56;;;;;;;12.50;4.72;;;;;;;8.85;93.46;96934.38;5065575;28;20032;-80
2023/10/28 03:23:22;;;;;;;7.65;3.38;;;;;;;8.91;92.65;96935.88;5088366;28;20040;-80
2023/10/28 03:25:47;;;;;;;11.45;5.15;;;;;;;9.00;92.56;96934.19;5076991;28;20028;-80
2023/10/28 03:28:13;;;;;;;5.25;3.35;;;;;;;8.99;91.63;96926.50;5075155;28;20475;-80
2023/10/28 03:30:39;;;;;;;11.57;3.75;;;;;;;8.96;92.00;96925.19;5046523;28;20408;-80
2023/10/28 03:33:04;;;;;;;8.10;4.03;;;;;;;8.99;92.32;96924.63;5074679;28;20035;-80
2023/10/28 03:35:30;;;;;;;7.15;3.70;;;;;;;9.10;91.46;96933.28;5068074;28;20055;-80
2023/10/28 03:37:55;;;;;;;5.38;3.63;;;;;;;9.05;91.79;96925.34;5085741;28;20059;-80
2023/10/28 03:40:21;;;;;;;8.48;4.25;;;;;;;9.00;92.82;96933.38;5088735;28;20445;-80
2023/10/28 03:42:46;;;;;;;10.70;3.83;;;;;;;8.89;93.59;96938.03;5078923;28;20029;-81
2023/10/28 03:45:11;;;;;;;6.70;4.38;;;;;;;8.87;92.95;96942.06;5087054;28;20156;-80
2023/10/28 03:47:40;;;;;;;4.70;3.53;;;;;;;8.87;93.90;96932.22;5065851;28;20143;-80
2023/10/28 03:50:05;;;;;;;8.65;3.83;;;;;;;8.84;93.67;96938.13;5085030;28;20020;-80
2023/10/28 03:52:32;;;;;;;9.50;4.22;;;;;;;9.09;93.03;96936.22;5083706;28;20028;-80
2023/10/28 03:54:58;;;;;;;6.70;3.90;;;;;;;9.06;92.60;96929.63;5084191;28;20051;-80
2023/10/28 03:57:24;;;;;;;6.40;3.70;;;;;;;9.10;92.37;96941.25;5085575;28;20024;-80
2023/10/28 03:59:49;;;;;;;9.07;3.35;;;;;;;9.00;93.06;96933.38;5058867;28;20035;-80
2023/10/28 04:02:15;;;;;;;5.50;3.25;;;;;;;9.12;92.22;96930.31;5083180;28;20348;-81
2023/10/28 04:04:40;;;;;;;5.35;3.70;;;;;;;9.18;91.84;96945.16;5085240;28;20500;-80
2023/10/28 04:07:05;;;;;;;8.60;3.65;;;;;;;9.06;92.11;96950.91;5081042;28;20392;-80
2023/10/28 04:09:31;;;;;;;7.90;3.13;;;;;;;9.05;91.96;96928.00;5089539;28;20020;-80
2023/10/28 04:12:00;;;;;;;4.97;3.17;;;;;;;9.18;91.97;96940.63;5074844;28;20060;-80
2023/10/28 04:14:25;;;;;;;9.65;3.70;;;;;;;9.13;92.58;96939.91;5066941;28;20036;-80
2023/10/28 04:16:51;;;;;;;5.13;3.05;;;;;;;9.02;93.43;96949.88;5095966;27;20028;-80
2023/10/28 04:19:16;;;;;;;6.97;3.60;;;;;;;9.00;92.80;96949.34;5075104;28;20035;-80
2023/10/28 04:21:42;;;;;;;8.95;3.70;;;;;;;9.09;92.92;96949.53;5075971;28;20581;-80
2023/10/28 04:24:08;;;;;;;9.52;3.22;;;;;;;9.19;91.75;96952.06;5052904;28;20066;-80
2023/10/28 04:26:33;;;;;;;5.80;3.55;;;;;;;9.21;92.14;96960.56;5077149;28;20079;-80
2023/10/28 04:29:00;;;;;;;6.07;3.53;;;;;;;9.00;92.89;96960.00;5081887;28;20032;-80
2023/10/28 04:31:27;;;;;;;7.20;3.45;;;;;;;9.07;92.46;96945.28;5079554;28;20058;-80
2023/10/28 04:33:53;;;;;;;13.02;5.07;;;;;;;8.97;93.64;96958.72;5078077;28;20380;-80
2023/10/28 04:36:18;;;;;;;7.85;3.58;;;;;;;8.87;94.29;96942.84;5078893;28;20038;-80
2023/10/28 04:38:43;;;;;;;6.88;4.03;;;;;;;8.92;94.32;96955.31;5083718;28;20048;-80
2023/10/28 04:41:09;;;;;;;9.77;4.63;;;;;;;8.98;93.88;96951.50;5089462;28;20036;-80
2023/10/28 04:43:35;;;;;;;8.85;5.75;;;;;;;8.89;93.82;96950.53;5086274;28;20067;-80
2023/10/28 04:46:00;;;;;;;8.80;4.07;;;;;;;9.06;92.84;96942.91;5082032;28;20097;-80
2023/10/28 04:48:28;;;;;;;4.95;3.25;;;;;;;9.02;93.68;96937.34;5080165;28;20492;-80
2023/10/28 04:50:54;;;;;;;5.47;3.53;;;;;;;9.08;93.15;96951.41;5069167;28;20028;-80
2023/10/28 04:53:19;;;;;;;7.90;3.80;;;;;;;9.16;92.80;96948.09;5076273;28;20032;-80
2023/10/28 04:55:45;;;;;;;5.68;3.72;;;;;;;9.11;92.90;96950.03;5086572;28;20035;-80
2023/10/28 04:58:11;;;;;;;6.72;5.32;;;;;;;9.14;93.16;96950.25;5076191;28;20032;-80
2023/10/28 05:00:37;;;;;;;5.30;3.50;;;;;;;9.24;92.38;96950.13;5078759;28;20047;-80
2023/10/28 05:03:03;;;;;;;4.85;3.70;;;;;;;9.27;91.75;96956.75;5061188;28;20020;-80
2023/10/28 05:05:29;;;;;;;8.35;4.15;;;;;;;9.23;92.29;96953.06;5082172;28;20034;-81
2023/10/28 05:07:55;;;;;;;9.18;5.82;;;;;;;9.27;92.40;96956.75;5078960;28;20047;-80
2023/10/28 05:10:21;;;;;;;8.82;4.75;;;;;;;9.28;92.55;96961.81;5078124;28;20471;-81
2023/10/28 05:12:47;;;;;;;7.22;5.68;;;;;;;9.23;92.93;96963.72;5084601;28;20103;-80
2023/10/28 05:15:12;;;;;;;9.35;5.32;;;;;;;9.20;92.64;96961.63;5102468;28;20449;-80
2023/10/28 05:17:38;;;;;;;9.50;5.47;;;;;;;9.24;92.58;96955.44;5088177;28;20032;-80
2023/10/28 05:20:08;;;;;;;7.20;4.85;;;;;;;9.15;92.57;96959.03;5087884;28;20157;-80
2023/10/28 05:22:37;;;;;;;10.18;6.97;;;;;;;9.03;93.82;96959.44;5086081;28;20084;-80
2023/10/28 05:25:09;;;;;;;7.97;4.80;;;;;;;9.22;93.58;96970.13;5096417;27;20494;-80
2023/10/28 05:27:35;;;;;;;8.85;5.53;;;;;;;9.06;93.44;96958.88;5084597;28;20071;-80
2023/10/28 05:30:02;;;;;;;6.45;4.78;;;;;;;9.16;93.62;96958.75;5083729;28;20070;-80
2023/10/28 05:32:27;;;;;;;9.98;5.75;;;;;;;9.18;93.34;96966.44;5092503;28;20066;-81
2023/10/28 05:34:56;;;;;;;14.43;5.78;;;;;;;9.18;93.35;96975.22;5064791;28;20036;-80
2023/10/28 05:37:21;;;;;;;8.98;5.35;;;;;;;9.18;93.04;96972.56;5080705;28;20039;-80
2023/10/28 05:39:47;;;;;;;5.07;4.13;;;;;;;9.22;93.61;96972.81;5071200;28;20036;-80
2023/10/28 05:42:14;;;;;;;6.32;4.82;;;;;;;9.29;92.49;96967.91;5087024;28;20655;-80
2023/10/28 05:44:39;;;;;;;6.30;4.72;;;;;;;9.30;92.12;96975.63;5092312;28;20036;-80
2023/10/28 05:47:07;;;;;;;4.85;4.35;;;;;;;9.20;92.28;96967.75;5081937;28;20028;-80
2023/10/28 05:49:33;;;;;;;7.22;4.15;;;;;;;9.23;93.08;96975.16;5076409;28;20040;-81
2023/10/28 05:51:58;;;;;;;8.20;4.53;;;;;;;9.27;92.63;96975.38;5078920;28;20094;-81
2023/10/28 05:54:24;;;;;;;5.20;4.28;;;;;;;9.26;92.39;96979.13;5085469;28;20032;-80
2023/10/28 05:56:49;;;;;;;8.32;3.92;;;;;;;9.37;91.88;96983.25;5067882;28;20104;-80
2023/10/28 05:59:15;;;;;;;7.07;4.20;;;;;;;9.33;92.15;96991.00;5083300;28;20184;-81
2023/10/28 06:01:41;;;;;;;5.85;4.18;;;;;;;9.36;92.16;96989.66;5077376;28;20036;-81
2023/10/28 06:04:06;;;;;;;4.88;4.35;;;;;;;9.37;92.36;96997.34;5086068;28;20353;-81
2023/10/28 06:06:32;;;;;;;5.38;4.43;;;;;;;9.39;92.10;97000.50;5088009;28;20038;-81
2023/10/28 06:08:57;;;;;;;11.20;4.82;;;;;;;9.33;92.42;96995.53;5083141;28;20119;-81
2023/10/28 06:11:23;;;;;;;10.60;4.50;;;;;;;9.32;92.40;96993.97;5073489;28;20455;-82
2023/10/28 06:13:49;;;;;;;5.97;3.95;;;;;;;9.32;92.92;97008.06;5084157;28;20162;-81
2023/10/28 06:16:14;;;;;;;4.93;3.80;;;;;;;9.32;92.74;97005.41;5089917;28;20436;-81
2023/10/28 06:18:40;;;;;;;6.03;4.10;;;;;;;9.35;93.11;97020.03;5070511;28;20078;-81
2023/10/28 06:21:05;;;;;;;4.68;4.05;;;;;;;9.32;93.25;97013.41;5082036;28;20027;-81
2023/10/28 06:23:30;;;;;;;15.35;6.47;;;;;;;9.27;93.08;97013.44;5087930;28;20024;-81
2023/10/28 06:25:56;;;;;;;8.45;5.20;;;;;;;9.29;93.15;97010.50;5048905;28;20074;-81
2023/10/28 06:28:21;;;;;;;8.32;5.40;;;;;;;9.22;94.29;97018.06;5072319;28;20497;-81
2023/10/28 06:30:48;;;;;;;4.95;4.10;;;;;;;9.35;92.99;97012.81;5079393;28;20512;-81
2023/10/28 06:33:13;;;;;;;5.30;3.70;;;;;;;9.36;93.22;97022.38;5080461;28;20556;-81
2023/10/28 06:35:39;;;;;;;4.10;3.42;;;;;;;9.31;93.32;97014.47;5074065;28;20028;-81
2023/10/28 06:38:06;;;;;;;6.07;3.75;;;;;;;9.25;93.76;97015.59;5089458;28;20074;-81
2023/10/28 06:40:32;;;;;;;6.45;5.10;;;;;;;9.25;93.48;97020.13;5078877;28;20531;-80
2023/10/28 06:42:57;;;;;;;8.57;6.97;;;;;;;9.27;94.45;97032.09;5089140;28;20028;-81
2023/10/28 06:45:22;;;;;;;5.30;4.00;;;;;;;9.35;93.66;97036.75;5074178;28;20036;-81
2023/10/28 06:47:48;;;;;;;7.35;6.10;;;;;;;9.17;94.98;97028.75;5072141;28;20040;-80
2023/10/28 06:50:17;;;;;;;13.07;6.38;;;;;;;9.31;94.47;97030.44;5086838;28;20438;-81
2023/10/28 06:52:42;;;;;;;9.10;5.00;;;;;;;9.21;95.39;97027.91;5086963;28;20043;-81
2023/10/28 06:55:12;;;;;;;5.95;4.07;;;;;;;9.37;94.44;97034.59;5086890;28;20020;-81
2023/10/28 06:57:37;;;;;;;8.60;5.93;;;;;;;9.20;96.43;97036.94;5084833;28;20056;-81
2023/10/28 07:00:04;;;;;;;9.70;4.70;;;;;;;9.35;94.26;97042.09;5083821;28;20127;-81
2023/10/28 07:02:30;;;;;;;5.05;4.20;;;;;;;9.29;94.82;97043.22;5084022;28;20036;-81
2023/10/28 07:04:55;;;;;;;6.80;3.63;;;;;;;9.13;96.05;97054.34;5071298;28;20085;-81
2023/10/28 07:07:23;;;;;;;5.57;3.90;;;;;;;9.43;94.04;97057.47;5090618;28;20024;-81
2023/10/28 07:09:48;;;;;;;4.72;3.33;;;;;;;9.55;93.31;97063.16;5080439;28;20031;-81
2023/10/28 07:12:13;;;;;;;3.33;3.03;;;;;;;9.40;94.16;97058.00;5087763;28;20024;-81
2023/10/28 07:14:39;;;;;;;5.78;2.83;;;;;;;9.46;94.08;97062.19;5090587;28;20020;-81
2023/10/28 07:17:04;;;;;;;4.15;3.60;;;;;;;9.50;95.06;97065.09;5066809;28;20036;-81
2023/10/28 07:19:30;;;;;;;3.30;2.88;;;;;;;9.61;93.61;97074.56;5088809;28;20483;-82
2023/10/28 07:21:56;;;;;;;3.33;2.97;;;;;;;9.49;94.59;97074.97;5073370;28;20084;-81
2023/10/28 07:24:21;;;;;;;3.30;3.00;;;;;;;9.53;93.70;97067.97;5087657;28;20031;-81
2023/10/28 07:26:47;;;;;;;3.10;2.60;;;;;;;9.69;93.10;97080.03;5071522;28;20029;-81
2023/10/28 07:29:12;;;;;;;3.88;2.85;;;;;;;9.56;93.90;97088.72;5089598;28;20028;-81
2023/10/28 07:31:40;;;;;;;3.50;2.25;;;;;;;9.54;93.46;97084.75;5080850;28;20047;-81
2023/10/28 07:34:07;;;;;;;3.90;1.98;;;;;;;9.54;93.53;97090.88;5054077;28;20028;-81
2023/10/28 07:36:33;;;;;;;3.47;2.30;;;;;;;9.49;93.80;97100.78;5066048;28;20369;-83
2023/10/28 07:39:01;;;;;;;1.77;1.45;;;;;;;9.52;94.80;97105.56;5084867;28;20040;-82
2023/10/28 07:41:29;;;;;;;3.10;1.73;;;;;;;9.60;93.96;97100.41;5084756;28;20134;-83
2023/10/28 07:43:55;;;;;;;1.77;1.25;;;;;;;9.51;94.10;97103.97;5069590;28;20028;-83
2023/10/28 07:46:20;;;;;;;2.90;1.52;;;;;;;9.52;93.92;97098.34;5084877;28;20051;-83
2023/10/28 07:48:45;;;;;;;1.33;1.23;;;;;;;9.57;93.96;97108.94;5089236;28;20037;-83
2023/10/28 07:51:13;;;;;;;3.78;1.50;;;;;;;9.29;94.33;97082.38;5071093;28;20120;-82
2023/10/28 07:53:39;;;;;;;1.40;1.30;;;;;;;9.60;94.85;97129.69;5082646;28;20028;-83
2023/10/28 07:56:04;;;;;;;1.38;1.27;;;;;;;9.65;94.22;97123.50;5071070;28;20104;-83
2023/10/28 07:58:29;;;;;;;4.30;1.30;;;;;;;9.60;93.95;97126.22;5069927;28;20051;-84
2023/10/28 08:00:55;;;;;;;2.10;1.35;;;;;;;9.62;93.86;97135.53;5052535;28;20024;-83
2023/10/28 08:03:20;;;;;;;2.03;1.40;;;;;;;9.67;93.89;97140.81;5075263;28;20027;-84
2023/10/28 08:05:46;;;;;;;3.47;1.38;;;;;;;9.70;94.12;97134.09;5074189;28;20047;-84
2023/10/28 08:08:11;;;;;;;1.23;1.10;;;;;;;9.78;93.57;97141.47;5082856;28;20181;-84
2023/10/28 08:10:40;;;;;;;2.90;1.60;;;;;;;9.82;93.23;97139.81;5065216;28;20028;-83
2023/10/28 08:13:06;;;;;;;2.33;1.40;;;;;;;9.73;93.41;97133.53;5089263;28;20418;-83
2023/10/28 08:15:31;;;;;;;2.28;1.60;;;;;;;9.74;94.27;97137.78;5084378;28;20043;-84
2023/10/28 08:17:57;;;;;;;7.13;1.65;;;;;;;9.84;93.25;97140.34;5088104;28;20043;-83
2023/10/28 08:20:22;;;;;;;2.72;1.38;;;;;;;9.93;92.99;97140.50;5089705;28;20055;-83
2023/10/28 08:22:49;;;;;;;2.65;1.23;;;;;;;9.98;93.06;97151.88;5071339;28;20048;-83
2023/10/28 08:25:17;;;;;;;2.92;1.08;;;;;;;10.09;92.56;97156.00;5073025;28;20081;-83
2023/10/28 08:27:44;;;;;;;2.50;1.30;;;;;;;10.02;92.79;97155.56;5070947;28;20058;-83
2023/10/28 08:30:15;;;;;;;2.88;1.10;;;;;;;10.00;92.58;97149.72;5092648;28;20402;-83
2023/10/28 08:32:41;;;;;;;2.78;1.52;;;;;;;9.95;93.52;97157.78;5090548;28;20023;-83
2023/10/28 08:35:09;;;;;;;1.40;1.10;;;;;;;10.08;93.10;97166.94;5058150;28;20085;-83
2023/10/28 08:37:34;;;;;;;3.00;0.98;;;;;;;10.14;92.53;97165.81;5090189;28;20032;-83
2023/10/28 08:40:00;;;;;;;1.50;1.10;;;;;;;10.07;92.66;97160.81;5089498;28;20399;-83
2023/10/28 08:42:25;;;;;;;1.35;1.17;;;;;;;10.14;92.35;97168.50;5087473;28;20040;-83
2023/10/28 08:44:52;;;;;;;3.05;2.03;;;;;;;10.15;92.62;97167.44;5076542;28;20050;-84
2023/10/28 08:47:23;;;;;;;1.10;1.00;;;;;;;10.19;92.54;97166.56;5083061;28;20020;-83
2023/10/28 08:49:50;;;;;;;1.90;1.20;;;;;;;10.17;92.47;97171.41;5084138;28;20025;-83
2023/10/28 08:52:22;;;;;;;2.10;1.38;;;;;;;10.21;92.44;97180.41;5084230;28;20498;-83
2023/10/28 08:54:47;;;;;;;1.25;1.15;;;;;;;10.17;92.76;97179.41;5080866;28;20385;-84
2023/10/28 08:57:14;;;;;;;2.45;1.15;;;;;;;10.14;92.60;97169.28;5055304;28;20032;-83
2023/10/28 08:59:39;;;;;;;2.20;1.00;;;;;;;10.20;92.32;97194.03;5067708;28;20535;-84
2023/10/28 09:02:09;;;;;;;2.03;1.13;;;;;;;10.15;93.09;97191.41;5086849;28;20055;-83
2023/10/28 09:04:35;;;;;;;2.55;1.30;;;;;;;10.15;92.35;97189.56;5066022;28;20384;-83
2023/10/28 09:07:02;;;;;;;1.25;1.15;;;;;;;10.22;92.62;97194.53;5088443;28;20020;-83
2023/10/28 09:09:27;;;;;;;2.15;1.10;;;;;;;10.16;92.45;97196.47;5065072;28;20032;-84
2023/10/28 09:12:00;;;;;;;2.17;1.15;;;;;;;10.15;92.59;97192.22;5068007;28;20044;-83
2023/10/28 09:14:25;;;;;;;2.15;1.20;;;;;;;10.03;92.41;97196.31;5065217;28;20361;-83
2023/10/28 09:16:51;;;;;;;3.72;2.38;;;;;;;10.08;92.91;97204.25;5086238;28;20036;-84
2023/10/28 09:19:21;;;;;;;3.40;0.95;;;;;;;10.08;92.98;97212.25;5085134;28;20024;-83
2023/10/28 09:21:48;;;;;;;10.43;1.65;;;;;;;10.08;92.60;97214.94;5088426;28;20044;-83
2023/10/28 09:24:14;;;;;;;2.08;1.25;;;;;;;10.04;92.53;97214.72;5086588;28;20359;-83
2023/10/28 09:26:40;;;;;;;3.47;1.40;;;;;;;9.96;92.71;97198.56;5052183;28;20040;-83
2023/10/28 09:29:05;;;;;;;5.15;1.38;;;;;;;10.05;93.04;97218.94;5088329;28;20028;-83
2023/10/28 09:31:31;;;;;;;3.50;1.27;;;;;;;10.15;93.06;97218.88;5086611;28;20032;-84
2023/10/28 09:33:57;;;;;;;3.45;1.20;;;;;;;10.17;93.03;97216.72;5049596;28;20036;-84
2023/10/28 09:36:23;;;;;;;2.15;1.30;;;;;;;10.22;92.54;97203.31;5083046;28;20474;-83
2023/10/28 09:38:50;;;;;;;1.30;1.20;;;;;;;10.18;93.08;97204.97;5086466;28;20043;-83
2023/10/28 09:41:19;;;;;;;2.42;1.25;;;;;;;10.21;93.44;97214.25;5084401;28;20476;-84
2023/10/28 09:43:44;;;;;;;3.17;1.17;;;;;;;10.30;92.65;97213.34;5100385;28;20050;-84
2023/10/28 09:46:10;;;;;;;2.80;1.45;;;;;;;10.34;92.70;97203.69;5087678;28;20032;-83
2023/10/28 09:48:39;;;;;;;1.60;1.02;;;;;;;10.38;92.50;97220.72;5082634;28;20030;-83
2023/10/28 09:51:05;;;;;;;2.13;1.08;;;;;;;10.41;92.50;97217.47;5066637;28;20021;-84
2023/10/28 09:53:36;;;;;;;2.15;1.45;;;;;;;10.43;92.78;97217.97;5085454;28;20103;-83
2023/10/28 09:56:03;;;;;;;4.18;1.48;;;;;;;10.42;92.25;97218.25;5086860;28;20040;-83
2023/10/28 09:58:41;;;;;;;3.38;1.52;;;;;;;10.37;92.93;97221.00;5083237;28;20036;-83
2023/10/28 10:01:27;;;;;;;4.25;1.33;;;;;;;10.45;92.68;97221.16;5086074;28;20026;-83
2023/10/28 10:04:08;;;;;;;3.10;1.50;;;;;;;10.52;92.54;97224.28;5096425;27;20035;-82
2023/10/28 10:06:34;;;;;;;5.80;1.55;;;;;;;10.47;92.90;97229.66;5085315;28;20058;-83
2023/10/28 10:09:00;;;;;;;2.85;1.30;;;;;;;10.59;92.26;97233.78;5082925;28;20495;-82
2023/10/28 10:11:27;;;;;;;1.70;1.27;;;;;;;10.60;92.56;97230.81;5083803;28;20077;-83
2023/10/28 10:13:55;;;;;;;1.42;1.27;;;;;;;10.53;92.85;97217.84;5086668;28;20056;-83
2023/10/28 10:16:27;;;;;;;1.85;1.42;;;;;;;10.69;92.75;97223.75;5075501;28;20032;-83
2023/10/28 10:18:55;;;;;;;4.43;1.33;;;;;;;10.52;93.14;97212.81;5087295;28;20056;-83
2023/10/28 10:21:22;;;;;;;4.03;1.75;;;;;;;10.70;93.35;97228.03;5087317;28;20103;-83
2023/10/28 10:23:52;;;;;;;3.80;1.58;;;;;;;10.68;93.27;97213.38;5086193;28;20097;-83
2023/10/28 10:26:29;;;;;;;3.30;2.10;;;;;;;10.73;93.23;97218.63;5087406;28;20471;-83
2023/10/28 10:28:56;;;;;;;3.13;1.73;;;;;;;10.82;92.59;97216.91;5088364;28;20028;-83
2023/10/28 10:31:31;;;;;;;2.40;2.08;;;;;;;10.81;93.17;97216.09;5091800;28;20692;-82
2023/10/28 10:34:03;;;;;;;4.93;2.15;;;;;;;10.88;93.01;97219.19;5085678;28;20016;-83
2023/10/28 10:36:30;;;;;;;5.63;1.90;;;;;;;11.03;93.17;97218.19;5088897;28;20048;-83
2023/10/28 10:39:10;;;;;;;3.85;2.65;;;;;;;11.03;92.53;97210.97;5085338;28;20024;-83
2023/10/28 10:41:35;;;;;;;2.60;2.10;;;;;;;11.06;92.30;97210.38;5092244;28;20027;-83
2023/10/28 10:44:24;;;;;;;5.90;2.60;;;;;;;11.08;92.23;97216.22;5051208;28;20028;-83
2023/10/28 10:46:49;;;;;;;4.78;1.92;;;;;;;11.02;92.60;97217.41;5073083;28;20044;-83
2023/10/28 10:49:16;;;;;;;4.13;2.20;;;;;;;10.97;92.42;97208.66;5072158;28;20144;-83
2023/10/28 10:51:44;;;;;;;8.45;2.92;;;;;;;11.08;92.23;97208.22;5087427;28;20027;-83
2023/10/28 10:54:10;;;;;;;2.50;2.30;;;;;;;11.03;91.92;97210.97;5090708;28;20016;-83
2023/10/28 10:56:36;;;;;;;8.60;2.75;;;;;;;11.02;92.47;97216.59;5087357;28;20035;-83
2023/10/28 10:59:02;;;;;;;7.13;2.80;;;;;;;11.05;91.88;97208.78;5092112;28;20032;-83
2023/10/28 11:01:28;;;;;;;3.83;2.80;;;;;;;10.99;93.27;97209.97;5073188;28;20028;-84
2023/10/28 11:03:55;;;;;;;4.78;2.00;;;;;;;11.12;92.23;97213.75;5064312;28;20100;-83
2023/10/28 11:06:21;;;;;;;4.55;2.03;;;;;;;11.07;92.37;97201.28;5089377;28;20036;-83
2023/10/28 11:08:47;;;;;;;4.35;2.17;;;;;;;11.13;91.84;97210.81;5074674;28;20063;-83
2023/10/28 11:11:13;;;;;;;5.75;2.50;;;;;;;11.05;91.92;97194.66;5072032;28;20077;-84
2023/10/28 11:13:39;;;;;;;2.63;1.67;;;;;;;11.13;92.02;97212.69;5088727;28;20016;-83
2023/10/28 11:16:05;;;;;;;2.90;2.33;;;;;;;10.98;92.71;97207.59;5089879;28;20121;-83
2023/10/28 11:18:30;;;;;;;2.88;2.00;;;;;;;10.98;92.08;97204.91;5089293;28;20093;-83
2023/10/28 11:20:56;;;;;;;2.15;1.95;;;;;;;10.96;92.27;97215.91;5084886;28;20468;-82
2023/10/28 11:23:22;;;;;;;6.40;2.20;;;;;;;10.93;92.22;97210.31;5089729;28;20130;-84
2023/10/28 11:25:49;;;;;;;6.50;2.13;;;;;;;10.84;92.54;97217.41;5085649;28;20036;-83
2023/10/28 11:28:14;;;;;;;4.22;2.25;;;;;;;10.86;92.68;97220.56;5082085;28;20497;-84
2023/10/28 11:30:48;;;;;;;4.85;2.00;;;;;;;10.82;92.54;97208.88;5065329;28;20029;-83
2023/10/28 11:33:14;;;;;;;4.35;3.03;;;;;;;10.82;92.90;97219.56;5090131;28;20064;-84
2023/10/28 11:35:40;;;;;;;2.67;2.22;;;;;;;10.74;93.11;97212.22;5087151;28;20031;-84